Time;durP1;ratioP1;P1;durP2;ratioP2;P2;SDS_P1;SDS_P2;PMS_P1;PMS_P2;Temp;Humidity;BMP_temperature;BMP_pressure;BME280_temperature;BME280_humidity;BME280_pressure;Samples;Min_cycle;Max_cycle;Signal;HPM_P1;HPM_P2
2021/06/18 00:00:28;;;;;;;3.00;1.67;;;24.00;70.80;;;;;;5053736;28;20021;-82
2021/06/18 00:02:54;;;;;;;3.97;1.50;;;23.90;70.10;;;;;;5068971;28;20105;-82
2021/06/18 00:05:20;;;;;;;2.95;1.60;;;23.90;70.10;;;;;;5073215;28;20076;-82
2021/06/18 00:07:49;;;;;;;3.58;1.60;;;23.90;70.90;;;;;;5093544;28;20043;-82
2021/06/18 00:10:16;;;;;;;3.90;1.60;;;23.80;71.10;;;;;;5074872;28;20103;-82
2021/06/18 00:12:42;;;;;;;4.50;1.80;;;23.80;70.80;;;;;;5078981;28;20040;-82
2021/06/18 00:15:09;;;;;;;4.38;1.75;;;23.70;71.00;;;;;;5052995;28;20033;-82
2021/06/18 00:17:36;;;;;;;3.40;1.85;;;23.70;71.70;;;;;;5050077;28;20485;-82
2021/06/18 00:20:03;;;;;;;3.45;1.80;;;23.70;72.80;;;;;;5068846;28;20033;-82
2021/06/18 00:22:29;;;;;;;3.65;1.90;;;23.60;73.40;;;;;;5051338;28;20617;-82
2021/06/18 00:24:57;;;;;;;3.13;1.42;;;23.60;73.00;;;;;;5052237;28;20078;-83
2021/06/18 00:27:22;;;;;;;5.28;2.28;;;23.60;72.40;;;;;;5035205;28;20112;-82
2021/06/18 00:29:49;;;;;;;5.38;1.40;;;23.50;72.60;;;;;;5053286;28;20056;-82
2021/06/18 00:32:14;;;;;;;3.17;1.67;;;23.50;73.20;;;;;;5052922;28;20044;-82
2021/06/18 00:34:40;;;;;;;3.60;1.98;;;23.50;73.00;;;;;;5052633;28;20039;-82
2021/06/18 00:37:05;;;;;;;4.13;1.83;;;23.50;73.10;;;;;;5055349;28;20101;-82
2021/06/18 00:39:31;;;;;;;3.15;1.60;;;23.50;73.20;;;;;;5057337;28;20021;-82
2021/06/18 00:41:57;;;;;;;4.53;1.90;;;23.40;73.80;;;;;;5052750;28;20025;-82
2021/06/18 00:44:23;;;;;;;3.25;1.63;;;23.40;74.10;;;;;;5052530;28;20021;-82
2021/06/18 00:46:49;;;;;;;4.60;2.08;;;23.40;73.30;;;;;;5052833;28;20041;-82
2021/06/18 00:49:16;;;;;;;2.92;1.73;;;23.30;73.30;;;;;;5052519;28;20091;-82
2021/06/18 00:51:41;;;;;;;5.88;1.98;;;23.30;73.70;;;;;;5066846;28;20032;-82
2021/06/18 00:54:07;;;;;;;4.57;1.92;;;23.30;73.80;;;;;;5070900;28;20415;-82
2021/06/18 00:56:34;;;;;;;3.95;1.70;;;23.30;74.10;;;;;;5052768;28;20037;-82
2021/06/18 00:59:00;;;;;;;3.80;2.08;;;23.30;73.80;;;;;;5034216;28;20025;-82
2021/06/18 01:01:26;;;;;;;4.60;2.10;;;23.30;74.30;;;;;;5033478;28;20082;-82
2021/06/18 01:03:52;;;;;;;5.22;2.15;;;23.20;73.70;;;;;;5051924;28;20037;-82
2021/06/18 01:06:26;;;;;;;3.40;1.80;;;23.20;73.90;;;;;;5087551;28;20445;-82
2021/06/18 01:09:08;;;;;;;2.95;1.80;;;23.20;73.90;;;;;;5091872;28;20034;-82
2021/06/18 01:11:49;;;;;;;4.97;1.95;;;23.20;74.00;;;;;;5069784;28;20033;-82
2021/06/18 01:14:39;;;;;;;3.80;1.90;;;23.10;74.50;;;;;;5033081;28;20385;-82
2021/06/18 01:17:12;;;;;;;3.67;1.77;;;23.10;74.40;;;;;;5051262;28;20342;-82
2021/06/18 01:20:04;;;;;;;4.97;1.85;;;23.10;74.90;;;;;;5040531;28;20040;-82
2021/06/18 01:22:33;;;;;;;5.43;1.88;;;23.10;75.20;;;;;;5071188;28;20104;-82
2021/06/18 01:25:13;;;;;;;4.65;1.77;;;23.00;75.00;;;;;;5071074;28;20028;-82
2021/06/18 01:27:48;;;;;;;5.77;2.30;;;22.90;75.40;;;;;;5069923;28;20476;-82
2021/06/18 01:30:16;;;;;;;4.57;2.00;;;22.90;75.20;;;;;;5079215;22;20307;-81
2021/06/18 01:32:57;;;;;;;6.13;1.63;;;22.90;76.20;;;;;;5061802;28;20115;-81
2021/06/18 01:35:27;;;;;;;4.00;2.20;;;22.80;76.30;;;;;;5073918;28;20025;-81
2021/06/18 01:37:56;;;;;;;2.83;1.60;;;22.80;75.90;;;;;;5066172;28;20041;-81
2021/06/18 01:40:24;;;;;;;3.17;1.90;;;22.70;75.20;;;;;;5068844;28;20028;-81
2021/06/18 01:42:51;;;;;;;4.05;1.63;;;22.70;76.20;;;;;;5076797;28;20484;-81
2021/06/18 01:45:18;;;;;;;3.97;2.20;;;22.70;76.20;;;;;;5059234;28;20029;-81
2021/06/18 01:47:46;;;;;;;4.38;2.15;;;22.60;76.40;;;;;;5073768;28;20477;-81
2021/06/18 01:50:17;;;;;;;4.55;2.08;;;22.70;76.60;;;;;;5037534;28;20029;-83
2021/06/18 01:52:49;;;;;;;4.88;2.08;;;22.70;76.50;;;;;;5055776;28;20032;-81
2021/06/18 01:55:16;;;;;;;4.63;2.13;;;22.70;76.80;;;;;;5055653;28;20025;-81
2021/06/18 01:57:42;;;;;;;3.35;1.65;;;22.70;76.80;;;;;;5044412;28;20025;-81
2021/06/18 02:00:08;;;;;;;4.78;1.80;;;22.60;76.70;;;;;;5017830;28;20095;-81
2021/06/18 02:02:36;;;;;;;4.10;2.08;;;22.60;76.70;;;;;;5051257;28;20032;-81
2021/06/18 02:05:04;;;;;;;3.88;1.92;;;22.60;77.00;;;;;;5055175;28;20021;-81
2021/06/18 02:07:31;;;;;;;4.25;1.80;;;22.60;77.00;;;;;;5023002;28;20064;-81
2021/06/18 02:10:01;;;;;;;4.47;2.15;;;22.50;77.30;;;;;;5057502;28;20108;-81
2021/06/18 02:12:27;;;;;;;5.05;1.90;;;22.50;77.40;;;;;;5071816;28;20051;-81
2021/06/18 02:14:55;;;;;;;3.90;1.98;;;22.50;77.10;;;;;;5074728;28;20028;-81
2021/06/18 02:17:22;;;;;;;4.80;1.98;;;22.50;76.90;;;;;;5066394;28;20442;-81
2021/06/18 02:19:49;;;;;;;3.40;1.80;;;22.50;77.60;;;;;;5056577;28;20024;-81
2021/06/18 02:22:16;;;;;;;5.50;2.30;;;22.50;78.20;;;;;;5056023;28;20036;-81
2021/06/18 02:24:42;;;;;;;4.20;2.13;;;22.40;78.50;;;;;;5074938;28;20025;-81
2021/06/18 02:27:13;;;;;;;3.70;2.20;;;22.40;78.70;;;;;;5054480;28;20072;-81
2021/06/18 02:29:40;;;;;;;4.22;2.33;;;22.40;78.70;;;;;;5056596;28;20037;-81
2021/06/18 02:32:07;;;;;;;5.00;2.60;;;22.40;78.50;;;;;;5075127;28;20021;-81
2021/06/18 02:34:35;;;;;;;5.10;2.40;;;22.40;78.60;;;;;;5041203;28;20030;-81
2021/06/18 02:37:02;;;;;;;4.85;2.35;;;22.40;79.60;;;;;;5035142;28;20025;-81
2021/06/18 02:39:28;;;;;;;5.03;2.30;;;22.40;79.50;;;;;;5033690;28;20029;-81
2021/06/18 02:41:54;;;;;;;4.85;2.45;;;22.40;79.70;;;;;;5034326;28;20044;-81
2021/06/18 02:44:19;;;;;;;5.40;2.50;;;22.30;79.70;;;;;;5036314;28;20021;-81
2021/06/18 02:47:06;;;;;;;5.05;2.45;;;22.30;79.90;;;;;;5053463;28;20032;-81
2021/06/18 02:49:43;;;;;;;5.53;2.55;;;22.30;80.00;;;;;;5053967;28;20640;-81
2021/06/18 02:52:14;;;;;;;4.70;2.55;;;22.30;80.30;;;;;;5035510;28;20140;-81
2021/06/18 02:54:49;;;;;;;4.88;2.85;;;22.30;80.20;;;;;;5035810;28;20028;-81
2021/06/18 02:57:20;;;;;;;5.22;2.50;;;22.30;80.70;;;;;;5055235;28;20524;-81
2021/06/18 03:00:04;;;;;;;5.07;2.72;;;22.30;80.80;;;;;;5026073;28;20037;-81
2021/06/18 03:02:36;;;;;;;6.57;2.65;;;22.20;81.00;;;;;;5024068;28;20493;-81
2021/06/18 03:05:05;;;;;;;7.32;2.80;;;22.20;81.30;;;;;;5035647;28;20032;-81
2021/06/18 03:07:33;;;;;;;6.15;3.20;;;22.20;81.40;;;;;;5025422;28;20493;-81
2021/06/18 03:10:06;;;;;;;5.47;2.67;;;22.20;81.40;;;;;;5034038;28;20026;-81
2021/06/18 03:12:33;;;;;;;6.13;3.28;;;22.10;81.90;;;;;;5033869;28;20037;-81
2021/06/18 03:15:04;;;;;;;9.30;3.00;;;22.10;81.50;;;;;;5015815;28;20138;-81
2021/06/18 03:17:33;;;;;;;4.88;2.53;;;21.90;82.00;;;;;;5052461;28;20036;-81
2021/06/18 03:20:03;;;;;;;5.53;2.35;;;21.50;83.00;;;;;;5073619;28;20107;-81
2021/06/18 03:22:32;;;;;;;4.38;2.17;;;21.40;82.60;;;;;;5073857;28;20477;-81
2021/06/18 03:24:58;;;;;;;4.15;2.30;;;21.30;84.20;;;;;;5058238;28;20276;-81
2021/06/18 03:27:24;;;;;;;4.13;2.25;;;21.40;84.70;;;;;;5033285;28;20014;-81
2021/06/18 03:29:52;;;;;;;5.13;2.30;;;21.40;84.70;;;;;;5033059;28;20029;-81
2021/06/18 03:32:18;;;;;;;4.45;2.30;;;21.50;84.80;;;;;;5015901;28;20294;-81
2021/06/18 03:34:45;;;;;;;5.15;2.28;;;21.60;82.60;;;;;;5033324;28;20033;-81
2021/06/18 03:37:11;;;;;;;3.78;2.03;;;21.60;82.30;;;;;;5016801;28;20018;-81
2021/06/18 03:39:39;;;;;;;5.53;2.58;;;21.60;83.20;;;;;;5032625;28;20092;-81
2021/06/18 03:42:05;;;;;;;5.60;2.15;;;21.70;83.50;;;;;;5037320;28;20055;-81
2021/06/18 03:44:31;;;;;;;5.90;2.40;;;21.70;82.30;;;;;;5053122;28;20028;-82
2021/06/18 03:46:57;;;;;;;5.63;2.03;;;21.80;81.50;;;;;;5033203;28;20052;-81
2021/06/18 03:49:25;;;;;;;5.35;2.33;;;21.80;80.60;;;;;;5015734;28;20378;-81
2021/06/18 03:51:54;;;;;;;4.88;2.50;;;21.90;80.40;;;;;;5032924;28;20026;-81
2021/06/18 03:54:22;;;;;;;4.53;2.17;;;21.70;82.40;;;;;;5048378;28;20018;-81
2021/06/18 03:56:49;;;;;;;6.28;2.38;;;21.70;83.10;;;;;;5030007;28;20022;-81
2021/06/18 03:59:19;;;;;;;3.83;2.10;;;21.80;83.40;;;;;;5032270;28;20378;-81
2021/06/18 04:01:47;;;;;;;6.82;2.35;;;21.80;83.40;;;;;;5033093;28;20033;-81
2021/06/18 04:04:12;;;;;;;5.70;2.22;;;21.80;83.10;;;;;;5015099;28;20040;-81
2021/06/18 04:06:39;;;;;;;6.68;2.28;;;21.80;83.20;;;;;;5044500;28;20029;-81
2021/06/18 04:09:05;;;;;;;4.20;2.40;;;21.80;83.80;;;;;;5015116;28;20087;-81
2021/06/18 04:11:33;;;;;;;4.82;2.05;;;21.90;83.60;;;;;;5032710;28;20095;-81
2021/06/18 04:14:00;;;;;;;6.47;2.40;;;21.90;83.90;;;;;;5031993;28;20025;-81
2021/06/18 04:16:26;;;;;;;5.20;2.42;;;21.90;83.60;;;;;;5034200;28;20018;-81
2021/06/18 04:18:54;;;;;;;3.95;2.40;;;22.00;83.50;;;;;;5072367;28;20028;-81
2021/06/18 04:21:23;;;;;;;4.32;2.20;;;22.10;83.50;;;;;;5054392;28;20032;-81
2021/06/18 04:23:49;;;;;;;8.38;2.75;;;22.10;83.10;;;;;;5041849;28;20395;-81
2021/06/18 04:26:15;;;;;;;4.60;2.40;;;22.10;83.40;;;;;;5014692;28;20417;-81
2021/06/18 04:28:44;;;;;;;3.90;2.15;;;22.20;84.20;;;;;;5031342;28;20033;-81
2021/06/18 04:31:09;;;;;;;3.58;2.10;;;22.20;85.20;;;;;;5034952;28;20486;-81
2021/06/18 04:33:36;;;;;;;4.20;2.30;;;22.20;85.60;;;;;;5053392;28;20036;-81
2021/06/18 04:36:02;;;;;;;4.38;2.50;;;22.30;85.50;;;;;;5052512;28;20024;-82
2021/06/18 04:38:28;;;;;;;5.03;2.30;;;22.40;84.10;;;;;;5050752;28;20067;-81
2021/06/18 04:40:54;;;;;;;3.75;2.20;;;22.50;84.40;;;;;;5034748;28;20026;-81
2021/06/18 04:43:20;;;;;;;3.78;2.10;;;22.50;85.00;;;;;;5025180;28;20039;-81
2021/06/18 04:45:46;;;;;;;4.05;2.28;;;22.60;85.20;;;;;;5047186;28;20021;-81
2021/06/18 04:48:12;;;;;;;4.00;2.38;;;22.60;84.80;;;;;;5052528;28;20017;-81
2021/06/18 04:50:39;;;;;;;6.20;2.45;;;22.60;85.30;;;;;;5052884;28;20100;-81
2021/06/18 04:53:10;;;;;;;5.88;2.33;;;22.60;86.30;;;;;;5052901;28;20033;-82
2021/06/18 04:55:37;;;;;;;3.90;2.40;;;22.60;85.10;;;;;;5058719;28;20055;-81
2021/06/18 04:58:02;;;;;;;4.03;2.50;;;22.60;83.80;;;;;;5070388;28;20021;-81
2021/06/18 05:00:28;;;;;;;5.03;2.47;;;22.00;84.90;;;;;;5058214;28;20140;-82
2021/06/18 05:02:54;;;;;;;4.82;2.75;;;21.90;87.00;;;;;;5037128;28;20037;-81
2021/06/18 05:05:20;;;;;;;6.88;3.10;;;21.90;87.80;;;;;;5054836;28;20368;-82
2021/06/18 05:07:46;;;;;;;6.55;3.33;;;22.00;88.30;;;;;;5039217;28;20050;-81
2021/06/18 05:10:12;;;;;;;7.25;3.15;;;22.10;87.80;;;;;;5039113;28;20476;-82
2021/06/18 05:12:45;;;;;;;5.25;3.30;;;22.30;88.10;;;;;;5054575;28;20029;-83
2021/06/18 05:15:11;;;;;;;5.82;2.80;;;22.30;87.60;;;;;;5066109;28;20017;-82
2021/06/18 05:17:37;;;;;;;5.30;3.10;;;22.40;87.80;;;;;;5037170;28;20106;-82
2021/06/18 05:20:04;;;;;;;5.80;3.05;;;22.60;87.20;;;;;;5046343;28;20124;-82
2021/06/18 05:22:30;;;;;;;4.45;3.00;;;22.70;86.70;;;;;;5053902;28;20037;-82
2021/06/18 05:24:57;;;;;;;7.25;2.97;;;22.90;86.20;;;;;;5054348;28;20083;-82
2021/06/18 05:27:23;;;;;;;6.18;3.00;;;23.00;86.60;;;;;;5055741;28;20063;-82
2021/06/18 05:29:49;;;;;;;5.05;2.75;;;23.20;87.10;;;;;;5038767;28;20029;-83
2021/06/18 05:32:16;;;;;;;6.45;3.20;;;23.30;87.40;;;;;;5062080;28;20043;-82
2021/06/18 05:34:43;;;;;;;5.18;3.10;;;23.50;87.80;;;;;;5039029;28;20021;-82
2021/06/18 05:37:09;;;;;;;4.18;2.58;;;23.50;87.40;;;;;;5035175;28;20017;-81
2021/06/18 05:39:35;;;;;;;5.10;2.58;;;23.50;87.00;;;;;;5060032;28;20036;-81
2021/06/18 05:42:01;;;;;;;3.58;2.10;;;23.60;87.20;;;;;;5066384;28;20036;-81
2021/06/18 05:44:26;;;;;;;4.35;2.53;;;23.70;85.10;;;;;;5057151;28;20028;-81
2021/06/18 05:46:52;;;;;;;5.55;2.40;;;23.80;85.70;;;;;;5039679;28;20036;-81
2021/06/18 05:49:18;;;;;;;5.75;2.28;;;23.80;84.50;;;;;;5042895;28;20082;-81
2021/06/18 05:51:44;;;;;;;4.45;2.30;;;24.00;84.00;;;;;;5058767;28;20056;-81
2021/06/18 05:54:11;;;;;;;3.78;2.22;;;24.10;83.90;;;;;;5035039;28;20049;-81
2021/06/18 05:56:36;;;;;;;5.25;2.17;;;24.30;83.20;;;;;;5038355;28;20020;-81
2021/06/18 05:59:02;;;;;;;5.05;2.22;;;24.40;81.90;;;;;;5053498;28;20366;-81
2021/06/18 06:01:28;;;;;;;3.85;1.90;;;24.50;81.30;;;;;;5035906;28;20029;-81
2021/06/18 06:03:54;;;;;;;4.07;2.28;;;24.60;81.00;;;;;;5056094;28;20032;-80
2021/06/18 06:06:23;;;;;;;3.33;1.98;;;24.70;80.60;;;;;;5057637;28;20411;-80
2021/06/18 06:08:52;;;;;;;3.83;2.03;;;24.80;79.70;;;;;;5036663;28;20536;-80
2021/06/18 06:11:17;;;;;;;6.05;2.10;;;24.80;79.30;;;;;;5035615;28;20091;-80
2021/06/18 06:13:43;;;;;;;4.93;2.40;;;24.80;80.20;;;;;;5038847;28;20485;-80
2021/06/18 06:16:09;;;;;;;8.00;2.92;;;24.70;82.20;;;;;;5062315;28;20032;-81
2021/06/18 06:18:36;;;;;;;4.28;2.70;;;24.60;83.30;;;;;;5051514;28;20037;-80
2021/06/18 06:21:02;;;;;;;4.85;2.63;;;24.70;83.30;;;;;;5049075;28;20029;-81
2021/06/18 06:23:27;;;;;;;5.30;2.63;;;24.80;82.70;;;;;;5072299;28;20025;-80
2021/06/18 06:25:53;;;;;;;4.85;2.20;;;24.90;82.00;;;;;;5053314;28;20026;-81
2021/06/18 06:28:19;;;;;;;6.53;2.30;;;24.90;81.80;;;;;;5032619;28;20047;-80
2021/06/18 06:30:44;;;;;;;5.57;2.40;;;25.00;82.10;;;;;;5034402;28;20036;-80
2021/06/18 06:33:10;;;;;;;5.57;2.75;;;25.10;81.90;;;;;;5060647;28;20029;-81
2021/06/18 06:35:36;;;;;;;5.47;2.35;;;25.20;82.00;;;;;;5048409;28;20024;-81
2021/06/18 06:38:02;;;;;;;4.20;2.65;;;25.20;81.80;;;;;;5033474;28;20151;-81
2021/06/18 06:40:27;;;;;;;4.68;2.25;;;25.20;82.10;;;;;;5015602;28;20120;-81
2021/06/18 06:42:53;;;;;;;4.38;2.63;;;25.10;82.30;;;;;;5031089;28;20049;-81
2021/06/18 06:45:19;;;;;;;6.20;2.85;;;25.20;83.00;;;;;;5036934;28;20022;-81
2021/06/18 06:47:50;;;;;;;9.40;2.78;;;25.40;83.30;;;;;;5039287;28;20029;-81
2021/06/18 06:50:16;;;;;;;6.25;3.20;;;25.60;83.00;;;;;;5055315;28;20104;-80
2021/06/18 06:52:42;;;;;;;7.25;3.03;;;25.70;83.80;;;;;;5056177;28;20116;-80
2021/06/18 06:55:08;;;;;;;9.15;3.38;;;25.50;84.60;;;;;;5064538;28;20054;-80
2021/06/18 06:57:34;;;;;;;6.50;3.25;;;25.40;85.60;;;;;;5049679;28;20101;-80
2021/06/18 06:59:59;;;;;;;6.45;3.10;;;25.50;85.70;;;;;;5073675;28;20449;-83
2021/06/18 07:02:25;;;;;;;5.28;2.60;;;25.70;85.30;;;;;;5050126;28;20025;-82
2021/06/18 07:04:51;;;;;;;5.10;2.70;;;25.90;84.50;;;;;;5043223;28;20016;-83
2021/06/18 07:07:16;;;;;;;5.75;2.90;;;26.10;84.50;;;;;;5039533;28;20025;-82
2021/06/18 07:09:42;;;;;;;6.25;3.20;;;26.30;83.70;;;;;;5037110;28;20034;-83
2021/06/18 07:12:09;;;;;;;7.90;3.13;;;26.50;82.80;;;;;;5063688;28;20064;-83
2021/06/18 07:14:40;;;;;;;5.40;2.90;;;26.60;81.60;;;;;;5042226;28;20114;-83
2021/06/18 07:17:06;;;;;;;5.25;2.50;;;26.60;82.00;;;;;;5047424;28;20482;-82
2021/06/18 07:19:32;;;;;;;6.15;3.47;;;26.70;82.70;;;;;;5059792;28;20025;-82
2021/06/18 07:21:58;;;;;;;7.47;3.10;;;26.80;81.00;;;;;;5053102;28;20074;-82
2021/06/18 07:24:24;;;;;;;5.20;3.00;;;26.80;80.60;;;;;;5063208;28;20542;-83
2021/06/18 07:26:50;;;;;;;6.95;2.97;;;27.00;81.30;;;;;;5065637;28;20041;-83
2021/06/18 07:29:15;;;;;;;7.10;2.90;;;27.10;80.60;;;;;;5053310;22;20053;-82
2021/06/18 07:31:42;;;;;;;6.25;3.03;;;27.10;80.30;;;;;;5032356;28;20056;-81
2021/06/18 07:34:09;;;;;;;6.63;3.60;;;27.20;79.80;;;;;;5032910;28;20017;-81
2021/06/18 07:36:35;;;;;;;6.15;3.05;;;27.30;80.30;;;;;;5015316;28;20029;-81
2021/06/18 07:39:00;;;;;;;6.60;2.72;;;27.40;79.70;;;;;;5020041;28;20029;-84
2021/06/18 07:41:26;;;;;;;5.95;2.92;;;27.60;79.10;;;;;;5006660;28;20497;-82
2021/06/18 07:43:51;;;;;;;5.00;2.70;;;27.70;79.10;;;;;;5008442;28;20028;-83
2021/06/18 07:46:17;;;;;;;6.28;2.90;;;27.90;78.40;;;;;;5009900;28;20088;-81
2021/06/18 07:48:43;;;;;;;4.55;2.90;;;28.00;77.60;;;;;;5010071;28;20037;-81
2021/06/18 07:51:09;;;;;;;6.82;2.97;;;28.10;78.00;;;;;;4998130;28;20026;-82
2021/06/18 07:53:35;;;;;;;7.05;3.35;;;28.20;78.60;;;;;;4991422;28;20034;-81
2021/06/18 07:56:01;;;;;;;5.70;3.58;;;28.10;77.10;;;;;;5010204;28;20495;-81
2021/06/18 07:58:27;;;;;;;6.82;3.38;;;27.90;77.20;;;;;;5011498;28;20112;-81
2021/06/18 08:00:54;;;;;;;4.70;2.85;;;28.00;78.10;;;;;;5012542;28;20520;-82
2021/06/18 08:03:22;;;;;;;4.63;2.70;;;28.20;79.20;;;;;;4967981;28;20064;-81
2021/06/18 08:05:47;;;;;;;5.60;2.60;;;28.40;78.40;;;;;;5004474;28;20025;-81
2021/06/18 08:08:13;;;;;;;6.70;3.03;;;28.50;77.40;;;;;;5017270;28;20125;-82
2021/06/18 08:10:39;;;;;;;5.18;2.88;;;28.60;74.10;;;;;;4983139;28;20026;-84
2021/06/18 08:13:04;;;;;;;4.78;2.72;;;28.60;74.10;;;;;;4991306;28;20037;-84
2021/06/18 08:15:30;;;;;;;4.95;2.80;;;28.80;75.40;;;;;;4991672;28;20034;-84
2021/06/18 08:17:56;;;;;;;4.63;2.70;;;28.90;74.80;;;;;;4977792;28;20136;-84
2021/06/18 08:20:25;;;;;;;7.20;3.03;;;28.70;76.50;;;;;;5005853;28;20364;-84
2021/06/18 08:22:50;;;;;;;5.65;3.25;;;29.00;75.80;;;;;;5002591;28;20403;-85
2021/06/18 08:25:17;;;;;;;8.43;3.95;;;28.90;71.80;;;;;;4992185;28;20022;-86
2021/06/18 08:27:42;;;;;;;6.05;2.97;;;29.10;72.90;;;;;;5003767;28;20029;-85
2021/06/18 08:30:09;;;;;;;5.38;2.83;;;29.10;72.50;;;;;;4986559;28;20192;-85
2021/06/18 08:32:35;;;;;;;3.78;2.80;;;29.30;71.00;;;;;;4976401;28;20077;-84
2021/06/18 08:35:00;;;;;;;4.10;2.72;;;29.40;72.10;;;;;;4973317;28;20031;-85
2021/06/18 08:37:26;;;;;;;5.38;3.15;;;29.50;71.80;;;;;;4996634;28;20057;-85
2021/06/18 08:39:51;;;;;;;4.97;2.72;;;29.70;71.70;;;;;;5008812;28;20026;-85
2021/06/18 08:42:17;;;;;;;4.70;2.90;;;29.80;70.10;;;;;;5007526;28;20025;-85
2021/06/18 08:44:45;;;;;;;7.63;3.13;;;29.90;70.60;;;;;;4988763;28;20441;-85
2021/06/18 08:47:12;;;;;;;6.45;3.63;;;30.00;70.20;;;;;;5006981;28;20044;-85
2021/06/18 08:49:38;;;;;;;5.10;3.20;;;30.10;71.00;;;;;;5000354;28;20748;-85
2021/06/18 08:52:04;;;;;;;6.93;3.10;;;30.30;71.10;;;;;;4997634;28;20108;-85
2021/06/18 08:54:43;;;;;;;6.00;3.20;;;30.40;69.90;;;;;;4986645;28;20049;-86
2021/06/18 08:57:16;;;;;;;5.03;3.00;;;30.60;69.00;;;;;;5008473;28;20025;-86
2021/06/18 08:59:43;;;;;;;4.75;3.25;;;30.60;69.80;;;;;;4984419;28;20018;-86
2021/06/18 09:02:10;;;;;;;5.40;3.13;;;30.80;68.20;;;;;;5009705;28;20372;-86
2021/06/18 09:04:58;;;;;;;6.53;3.35;;;30.70;67.70;;;;;;4984996;28;20049;-85
2021/06/18 09:07:24;;;;;;;5.72;2.97;;;30.40;68.60;;;;;;5003459;28;20026;-86
2021/06/18 09:09:49;;;;;;;5.70;3.10;;;30.30;68.50;;;;;;4989106;28;20479;-87
2021/06/18 09:12:15;;;;;;;4.82;2.90;;;30.70;69.70;;;;;;4989674;28;20032;-86
2021/06/18 09:14:41;;;;;;;4.80;3.03;;;30.90;67.90;;;;;;4980704;28;20025;-86
2021/06/18 09:17:20;;;;;;;4.70;2.97;;;31.00;68.60;;;;;;4993347;28;20023;-86
2021/06/18 09:19:57;;;;;;;6.63;3.47;;;31.10;67.20;;;;;;4977552;28;20092;-86
2021/06/18 09:22:34;;;;;;;4.72;2.85;;;31.30;68.00;;;;;;4978395;28;20026;-86
2021/06/18 09:25:07;;;;;;;5.88;3.42;;;31.50;67.60;;;;;;4990131;28;20022;-87
2021/06/18 09:27:35;;;;;;;5.70;3.40;;;31.60;65.30;;;;;;4999144;28;20014;-86
2021/06/18 09:30:22;;;;;;;6.07;3.10;;;31.50;65.60;;;;;;4992179;28;20093;-86
2021/06/18 09:33:23;;;;;;;5.20;3.13;;;31.80;64.30;;;;;;4992714;28;20033;-86
2021/06/18 09:36:08;;;;;;;6.15;3.67;;;31.70;65.10;;;;;;4987297;28;20041;-86
2021/06/18 09:38:47;;;;;;;5.45;2.88;;;31.90;63.60;;;;;;4973014;28;20014;-84
2021/06/18 09:41:40;;;;;;;7.28;3.10;;;32.20;65.30;;;;;;4993768;28;20023;-86
2021/06/18 09:44:20;;;;;;;8.68;3.30;;;32.20;64.10;;;;;;4979342;28;20022;-86
2021/06/18 09:46:50;;;;;;;8.70;3.42;;;32.40;63.50;;;;;;4994711;28;20022;-85
2021/06/18 09:49:31;;;;;;;6.50;2.55;;;32.40;62.80;;;;;;4976250;28;20149;-85
2021/06/18 09:51:58;;;;;;;5.90;3.20;;;32.50;63.90;;;;;;4979169;28;20061;-85
2021/06/18 09:54:31;;;;;;;4.60;3.22;;;32.80;64.20;;;;;;4982300;28;20073;-85
2021/06/18 09:57:15;;;;;;;13.18;3.00;;;32.50;63.90;;;;;;4992708;28;20034;-85
2021/06/18 10:00:03;;;;;;;4.63;3.13;;;32.70;64.30;;;;;;5005874;28;20030;-85
2021/06/18 10:02:55;;;;;;;3.83;2.75;;;32.90;65.30;;;;;;5012521;28;20033;-85
2021/06/18 10:05:23;;;;;;;5.72;3.20;;;32.80;63.70;;;;;;5002075;28;20041;-85
2021/06/18 10:07:52;;;;;;;4.32;2.83;;;32.80;65.00;;;;;;5013802;28;20032;-86
2021/06/18 10:10:23;;;;;;;4.85;2.90;;;33.30;64.20;;;;;;4991921;28;20084;-86
2021/06/18 10:12:49;;;;;;;6.57;3.05;;;33.60;63.80;;;;;;4994630;28;20029;-86
2021/06/18 10:15:17;;;;;;;5.63;3.15;;;33.60;62.90;;;;;;4985229;28;20088;-86
2021/06/18 10:17:45;;;;;;;7.40;3.65;;;33.80;63.90;;;;;;4996149;28;20022;-85
2021/06/18 10:20:14;;;;;;;4.60;3.10;;;33.80;61.10;;;;;;5002971;28;20026;-86
2021/06/18 10:23:10;;;;;;;6.57;3.15;;;33.70;61.20;;;;;;4993663;28;20426;-87
2021/06/18 10:25:58;;;;;;;6.85;3.40;;;34.10;61.40;;;;;;4979865;28;20443;-86
2021/06/18 10:28:35;;;;;;;5.72;2.90;;;34.20;61.10;;;;;;4985925;28;20068;-87
2021/06/18 10:31:02;;;;;;;5.63;3.10;;;34.50;60.00;;;;;;5009485;28;20034;-86
2021/06/18 10:33:28;;;;;;;5.22;3.00;;;33.90;59.20;;;;;;5006113;28;20105;-86
2021/06/18 10:35:59;;;;;;;4.20;2.60;;;33.60;60.30;;;;;;5004223;28;20038;-86
2021/06/18 10:38:25;;;;;;;5.90;2.92;;;33.90;61.30;;;;;;4989463;28;20475;-86
2021/06/18 10:40:52;;;;;;;5.72;2.45;;;34.10;60.20;;;;;;4984357;28;20087;-86
2021/06/18 10:43:17;;;;;;;4.93;3.08;;;34.30;58.10;;;;;;4994271;28;20508;-86
2021/06/18 10:46:08;;;;;;;5.05;3.03;;;34.40;57.30;;;;;;4981302;28;20113;-86
2021/06/18 10:48:55;;;;;;;4.47;2.38;;;34.60;56.70;;;;;;4987000;28;20038;-86
2021/06/18 10:51:36;;;;;;;5.22;2.28;;;34.60;54.10;;;;;;4994051;28;20064;-86
2021/06/18 10:54:29;;;;;;;3.75;2.08;;;35.20;53.40;;;;;;5012026;28;20470;-86
2021/06/18 10:57:05;;;;;;;4.07;1.83;;;35.50;51.70;;;;;;5008849;28;20061;-86
2021/06/18 10:59:36;;;;;;;3.20;1.88;;;35.10;50.40;;;;;;5002909;28;20055;-86
2021/06/18 11:02:25;;;;;;;3.67;2.20;;;35.40;51.50;;;;;;4992400;28;20029;-86
2021/06/18 11:04:57;;;;;;;3.03;1.90;;;35.40;52.00;;;;;;4994810;28;20041;-86
2021/06/18 11:07:34;;;;;;;2.03;1.23;;;35.90;49.60;;;;;;4980651;28;20034;-87
2021/06/18 11:10:05;;;;;;;3.53;1.88;;;35.60;48.90;;;;;;4996105;28;20026;-85
2021/06/18 11:12:31;;;;;;;3.78;1.60;;;35.70;49.10;;;;;;4997183;28;20045;-86
2021/06/18 11:15:27;;;;;;;1.77;1.38;;;35.80;48.30;;;;;;4982678;28;20053;-85
2021/06/18 11:18:13;;;;;;;3.38;1.90;;;35.80;47.00;;;;;;4983107;28;20014;-86
2021/06/18 11:20:41;;;;;;;3.63;2.28;;;36.00;48.70;;;;;;5000019;28;20053;-85
2021/06/18 11:23:14;;;;;;;2.97;1.70;;;36.30;50.30;;;;;;5001268;28;20526;-85
2021/06/18 11:25:50;;;;;;;3.80;2.03;;;36.30;50.10;;;;;;4986100;28;20146;-86
2021/06/18 11:28:23;;;;;;;2.78;1.85;;;36.40;48.10;;;;;;5008659;28;20022;-86
2021/06/18 11:31:26;;;;;;;6.20;1.73;;;36.50;47.20;;;;;;4988297;28;20045;-86
2021/06/18 11:33:55;;;;;;;3.22;1.63;;;36.10;45.00;;;;;;5000176;28;20089;-86
2021/06/18 11:36:21;;;;;;;4.95;1.90;;;36.30;48.10;;;;;;5009950;28;20056;-86
2021/06/18 11:38:52;;;;;;;2.50;1.42;;;36.30;45.60;;;;;;4987529;28;20088;-86
2021/06/18 11:41:19;;;;;;;2.75;1.40;;;36.20;45.50;;;;;;4986518;28;20027;-86
2021/06/18 11:43:48;;;;;;;4.32;1.42;;;36.40;45.70;;;;;;4990564;28;20034;-86
2021/06/18 11:46:13;;;;;;;2.92;1.70;;;36.50;43.90;;;;;;4992777;28;20025;-86
2021/06/18 11:48:40;;;;;;;3.97;1.40;;;36.70;44.60;;;;;;4989784;28;20041;-86
2021/06/18 11:51:06;;;;;;;1.60;1.00;;;36.90;44.80;;;;;;4986976;28;20042;-87
2021/06/18 11:53:40;;;;;;;2.22;1.05;;;36.90;40.50;;;;;;4990334;28;20170;-87
2021/06/18 11:56:07;;;;;;;2.28;1.10;;;37.10;40.60;;;;;;4999552;28;20032;-86
2021/06/18 11:58:36;;;;;;;5.47;1.42;;;37.10;43.00;;;;;;5009330;28;20029;-85
2021/06/18 12:01:18;;;;;;;3.47;1.60;;;37.30;43.40;;;;;;5004146;28;20113;-85
2021/06/18 12:03:50;;;;;;;3.50;1.30;;;37.50;42.90;;;;;;5012516;28;20386;-84
2021/06/18 12:06:31;;;;;;;2.90;1.38;;;37.70;42.90;;;;;;5000597;28;20038;-84
2021/06/18 12:09:16;;;;;;;3.58;1.70;;;37.70;41.40;;;;;;5001884;28;20033;-84
2021/06/18 12:11:56;;;;;;;2.50;1.10;;;37.90;42.90;;;;;;4986958;28;20033;-85
2021/06/18 12:14:22;;;;;;;3.42;1.40;;;37.80;41.10;;;;;;4978349;28;20026;-87
2021/06/18 12:16:51;;;;;;;2.33;1.20;;;37.90;40.50;;;;;;4987906;28;20033;-87
2021/06/18 12:19:27;;;;;;;2.95;1.83;;;37.60;41.60;;;;;;4985592;28;20022;-87
2021/06/18 12:21:57;;;;;;;4.25;1.45;;;37.90;42.70;;;;;;4987380;28;20030;-87
2021/06/18 12:24:27;;;;;;;2.70;1.40;;;38.10;43.10;;;;;;4980499;28;20115;-85
2021/06/18 12:26:54;;;;;;;2.33;1.23;;;38.00;41.30;;;;;;4972865;28;20026;-84
2021/06/18 12:29:20;;;;;;;4.68;1.30;;;38.00;41.00;;;;;;4985536;28;20038;-85
2021/06/18 12:31:46;;;;;;;3.70;1.30;;;37.90;40.30;;;;;;4994943;28;20386;-83
2021/06/18 12:34:14;;;;;;;3.03;1.45;;;37.60;39.80;;;;;;4985556;28;20030;-86
2021/06/18 12:36:41;;;;;;;2.42;1.38;;;37.50;40.10;;;;;;4995423;28;20060;-85
2021/06/18 12:39:12;;;;;;;3.15;1.17;;;37.20;40.30;;;;;;4990775;28;20023;-85
2021/06/18 12:41:38;;;;;;;3.90;1.48;;;37.10;39.10;;;;;;5011863;28;20032;-85
2021/06/18 12:44:07;;;;;;;2.97;1.30;;;37.40;38.10;;;;;;5009602;28;20026;-85
2021/06/18 12:46:36;;;;;;;3.67;1.27;;;37.90;38.80;;;;;;5009113;28;20046;-85
2021/06/18 12:49:10;;;;;;;3.92;1.10;;;37.90;36.50;;;;;;5007349;28;20022;-86
2021/06/18 12:51:37;;;;;;;2.88;1.23;;;38.20;37.90;;;;;;4986494;28;20034;-86
2021/06/18 12:54:11;;;;;;;2.25;1.13;;;38.30;37.50;;;;;;5005560;28;20085;-86
2021/06/18 12:56:43;;;;;;;3.35;1.42;;;38.70;37.50;;;;;;4990022;28;20045;-86
2021/06/18 12:59:14;;;;;;;2.50;1.10;;;38.90;37.00;;;;;;4976466;28;20139;-85